sensor_id;sensor_type;location;lat;lon;timestamp;pressure;altitude;pressure_sealevel;temperature;humidity
9289;BME280;4683;50.864;12.086;2024-03-22T00:00:32;99761.88;;;9.60;100.00
9289;BME280;4683;50.864;12.086;2024-03-22T00:02:59;99759.34;;;9.50;100.00
9289;BME280;4683;50.864;12.086;2024-03-22T00:05:29;99758.31;;;9.43;100.00
9289;BME280;4683;50.864;12.086;2024-03-22T00:07:57;99762.25;;;9.39;100.00
9289;BME280;4683;50.864;12.086;2024-03-22T00:10:27;99754.66;;;9.36;100.00
9289;BME280;4683;50.864;12.086;2024-03-22T00:12:54;99753.47;;;9.30;100.00
9289;BME280;4683;50.864;12.086;2024-03-22T00:15:23;99758.69;;;9.22;100.00
9289;BME280;4683;50.864;12.086;2024-03-22T00:17:51;99757.66;;;9.15;100.00
9289;BME280;4683;50.864;12.086;2024-03-22T00:20:20;99749.03;;;9.05;100.00
9289;BME280;4683;50.864;12.086;2024-03-22T00:22:49;99759.66;;;8.95;100.00
9289;BME280;4683;50.864;12.086;2024-03-22T00:25:18;99759.06;;;8.83;100.00
9289;BME280;4683;50.864;12.086;2024-03-22T00:27:45;99752.91;;;8.75;100.00
9289;BME280;4683;50.864;12.086;2024-03-22T00:30:15;99761.53;;;8.67;100.00
9289;BME280;4683;50.864;12.086;2024-03-22T00:32:43;99753.44;;;8.60;100.00
9289;BME280;4683;50.864;12.086;2024-03-22T00:35:14;99749.75;;;8.53;100.00
9289;BME280;4683;50.864;12.086;2024-03-22T00:37:42;99747.56;;;8.49;100.00
9289;BME280;4683;50.864;12.086;2024-03-22T00:40:14;99746.53;;;8.42;100.00
9289;BME280;4683;50.864;12.086;2024-03-22T00:42:42;99748.88;;;8.35;100.00
9289;BME280;4683;50.864;12.086;2024-03-22T00:45:10;99744.66;;;8.24;100.00
9289;BME280;4683;50.864;12.086;2024-03-22T00:47:40;99743.59;;;8.17;100.00
9289;BME280;4683;50.864;12.086;2024-03-22T00:50:09;99741.56;;;8.11;100.00
9289;BME280;4683;50.864;12.086;2024-03-22T00:52:37;99732.63;;;8.04;100.00
9289;BME280;4683;50.864;12.086;2024-03-22T00:55:08;99734.03;;;7.98;100.00
9289;BME280;4683;50.864;12.086;2024-03-22T00:57:36;99729.53;;;7.91;100.00
9289;BME280;4683;50.864;12.086;2024-03-22T01:00:07;99725.84;;;7.83;100.00
9289;BME280;4683;50.864;12.086;2024-03-22T01:02:35;99714.25;;;7.76;100.00
9289;BME280;4683;50.864;12.086;2024-03-22T01:05:06;99714.84;;;7.70;100.00
9289;BME280;4683;50.864;12.086;2024-03-22T01:07:37;99715.81;;;7.69;100.00
9289;BME280;4683;50.864;12.086;2024-03-22T01:10:07;99715.13;;;7.67;100.00
9289;BME280;4683;50.864;12.086;2024-03-22T01:12:37;99710.84;;;7.66;100.00
9289;BME280;4683;50.864;12.086;2024-03-22T01:15:07;99704.63;;;7.67;100.00
9289;BME280;4683;50.864;12.086;2024-03-22T01:17:36;99702.97;;;7.66;100.00
9289;BME280;4683;50.864;12.086;2024-03-22T01:20:05;99699.38;;;7.67;100.00
9289;BME280;4683;50.864;12.086;2024-03-22T01:22:34;99694.44;;;7.64;100.00
9289;BME280;4683;50.864;12.086;2024-03-22T01:25:05;99691.94;;;7.62;100.00
9289;BME280;4683;50.864;12.086;2024-03-22T01:27:36;99687.53;;;7.63;100.00
9289;BME280;4683;50.864;12.086;2024-03-22T01:30:06;99684.75;;;7.65;100.00
9289;BME280;4683;50.864;12.086;2024-03-22T01:32:36;99668.84;;;7.66;100.00
9289;BME280;4683;50.864;12.086;2024-03-22T01:35:05;99669.81;;;7.65;100.00
9289;BME280;4683;50.864;12.086;2024-03-22T01:37:34;99667.19;;;7.65;100.00
9289;BME280;4683;50.864;12.086;2024-03-22T01:40:05;99659.59;;;7.62;100.00
9289;BME280;4683;50.864;12.086;2024-03-22T01:42:34;99664.84;;;7.62;100.00
9289;BME280;4683;50.864;12.086;2024-03-22T01:45:06;99666.66;;;7.61;100.00
9289;BME280;4683;50.864;12.086;2024-03-22T01:47:34;99664.72;;;7.63;100.00
9289;BME280;4683;50.864;12.086;2024-03-22T01:50:04;99656.69;;;7.65;100.00
9289;BME280;4683;50.864;12.086;2024-03-22T01:52:32;99652.66;;;7.71;100.00
9289;BME280;4683;50.864;12.086;2024-03-22T01:55:01;99647.94;;;7.74;100.00
9289;BME280;4683;50.864;12.086;2024-03-22T01:57:30;99641.13;;;7.81;100.00
9289;BME280;4683;50.864;12.086;2024-03-22T02:00:00;99640.25;;;7.91;100.00
9289;BME280;4683;50.864;12.086;2024-03-22T02:02:29;99634.09;;;8.00;100.00
9289;BME280;4683;50.864;12.086;2024-03-22T02:04:58;99629.88;;;8.07;100.00
9289;BME280;4683;50.864;12.086;2024-03-22T02:07:30;99628.75;;;8.09;100.00
9289;BME280;4683;50.864;12.086;2024-03-22T02:09:59;99616.81;;;8.15;100.00
9289;BME280;4683;50.864;12.086;2024-03-22T02:12:27;99614.38;;;8.22;100.00
9289;BME280;4683;50.864;12.086;2024-03-22T02:14:58;99619.59;;;8.31;100.00
9289;BME280;4683;50.864;12.086;2024-03-22T02:17:28;99609.06;;;8.31;100.00
9289;BME280;4683;50.864;12.086;2024-03-22T02:19:56;99610.72;;;8.32;100.00
9289;BME280;4683;50.864;12.086;2024-03-22T02:22:23;99607.09;;;8.33;100.00
9289;BME280;4683;50.864;12.086;2024-03-22T02:24:53;99603.50;;;8.34;100.00
9289;BME280;4683;50.864;12.086;2024-03-22T02:27:21;99599.63;;;8.38;100.00
9289;BME280;4683;50.864;12.086;2024-03-22T02:29:50;99594.34;;;8.38;100.00
9289;BME280;4683;50.864;12.086;2024-03-22T02:32:17;99593.69;;;8.36;100.00
9289;BME280;4683;50.864;12.086;2024-03-22T02:34:47;99592.44;;;8.31;100.00
9289;BME280;4683;50.864;12.086;2024-03-22T02:37:14;99584.88;;;8.28;100.00
9289;BME280;4683;50.864;12.086;2024-03-22T02:39:43;99577.31;;;8.25;100.00
9289;BME280;4683;50.864;12.086;2024-03-22T02:42:14;99570.69;;;8.21;100.00
9289;BME280;4683;50.864;12.086;2024-03-22T02:44:43;99578.91;;;8.18;100.00
9289;BME280;4683;50.864;12.086;2024-03-22T02:47:11;99577.41;;;8.15;100.00
9289;BME280;4683;50.864;12.086;2024-03-22T02:49:42;99570.50;;;8.14;100.00
9289;BME280;4683;50.864;12.086;2024-03-22T02:52:09;99576.75;;;8.13;100.00
9289;BME280;4683;50.864;12.086;2024-03-22T02:54:39;99574.25;;;8.11;100.00
9289;BME280;4683;50.864;12.086;2024-03-22T02:57:07;99567.50;;;8.09;100.00
9289;BME280;4683;50.864;12.086;2024-03-22T02:59:38;99573.13;;;8.14;100.00
9289;BME280;4683;50.864;12.086;2024-03-22T03:02:05;99571.84;;;8.18;100.00
9289;BME280;4683;50.864;12.086;2024-03-22T03:04:34;99567.94;;;8.22;100.00
9289;BME280;4683;50.864;12.086;2024-03-22T03:07:02;99576.19;;;8.27;100.00
9289;BME280;4683;50.864;12.086;2024-03-22T03:09:30;99575.03;;;8.30;100.00
9289;BME280;4683;50.864;12.086;2024-03-22T03:11:57;99570.59;;;8.30;100.00
9289;BME280;4683;50.864;12.086;2024-03-22T03:14:26;99576.69;;;8.31;100.00
9289;BME280;4683;50.864;12.086;2024-03-22T03:16:56;99573.09;;;8.32;100.00
9289;BME280;4683;50.864;12.086;2024-03-22T03:19:24;99570.31;;;8.33;100.00
9289;BME280;4683;50.864;12.086;2024-03-22T03:21:51;99567.03;;;8.31;100.00
9289;BME280;4683;50.864;12.086;2024-03-22T03:24:19;99566.69;;;8.34;100.00
9289;BME280;4683;50.864;12.086;2024-03-22T03:26:47;99567.84;;;8.32;100.00
9289;BME280;4683;50.864;12.086;2024-03-22T03:29:15;99563.53;;;8.31;100.00
9289;BME280;4683;50.864;12.086;2024-03-22T03:31:43;99558.16;;;8.32;100.00
9289;BME280;4683;50.864;12.086;2024-03-22T03:34:12;99558.38;;;8.39;100.00
9289;BME280;4683;50.864;12.086;2024-03-22T03:36:40;99547.56;;;8.42;100.00
9289;BME280;4683;50.864;12.086;2024-03-22T03:39:09;99536.06;;;8.43;100.00
9289;BME280;4683;50.864;12.086;2024-03-22T03:41:37;99540.66;;;8.41;100.00
9289;BME280;4683;50.864;12.086;2024-03-22T03:44:06;99539.50;;;8.44;100.00
9289;BME280;4683;50.864;12.086;2024-03-22T03:46:34;99540.22;;;8.54;100.00
9289;BME280;4683;50.864;12.086;2024-03-22T03:49:03;99533.19;;;8.54;100.00
9289;BME280;4683;50.864;12.086;2024-03-22T03:51:31;99537.97;;;8.59;100.00
9289;BME280;4683;50.864;12.086;2024-03-22T03:54:00;99544.19;;;8.58;100.00
9289;BME280;4683;50.864;12.086;2024-03-22T03:56:27;99544.56;;;8.63;100.00
9289;BME280;4683;50.864;12.086;2024-03-22T03:58:56;99537.50;;;8.63;100.00
9289;BME280;4683;50.864;12.086;2024-03-22T04:01:23;99533.72;;;8.66;100.00
9289;BME280;4683;50.864;12.086;2024-03-22T04:03:52;99532.75;;;8.67;100.00
9289;BME280;4683;50.864;12.086;2024-03-22T04:06:20;99533.59;;;8.68;100.00
9289;BME280;4683;50.864;12.086;2024-03-22T04:08:51;99532.25;;;8.72;100.00
9289;BME280;4683;50.864;12.086;2024-03-22T04:11:20;99526.88;;;8.73;100.00
9289;BME280;4683;50.864;12.086;2024-03-22T04:13:49;99527.38;;;8.77;100.00
9289;BME280;4683;50.864;12.086;2024-03-22T04:16:18;99531.50;;;8.79;100.00
9289;BME280;4683;50.864;12.086;2024-03-22T04:18:47;99516.41;;;8.81;100.00
9289;BME280;4683;50.864;12.086;2024-03-22T04:21:17;99511.28;;;8.80;100.00
9289;BME280;4683;50.864;12.086;2024-03-22T04:23:45;99511.94;;;8.82;100.00
9289;BME280;4683;50.864;12.086;2024-03-22T04:26:15;99509.16;;;8.83;100.00
9289;BME280;4683;50.864;12.086;2024-03-22T04:28:45;99507.34;;;8.84;100.00
9289;BME280;4683;50.864;12.086;2024-03-22T04:31:13;99503.91;;;8.83;100.00
9289;BME280;4683;50.864;12.086;2024-03-22T04:33:42;99510.50;;;8.87;100.00
9289;BME280;4683;50.864;12.086;2024-03-22T04:36:12;99506.22;;;8.86;100.00
9289;BME280;4683;50.864;12.086;2024-03-22T04:38:39;99508.50;;;8.81;100.00
9289;BME280;4683;50.864;12.086;2024-03-22T04:41:09;99506.47;;;8.75;100.00
9289;BME280;4683;50.864;12.086;2024-03-22T04:43:38;99499.41;;;8.76;100.00
9289;BME280;4683;50.864;12.086;2024-03-22T04:46:07;99499.75;;;8.81;100.00
9289;BME280;4683;50.864;12.086;2024-03-22T04:48:36;99511.63;;;8.85;100.00
9289;BME280;4683;50.864;12.086;2024-03-22T04:51:06;99503.72;;;8.85;100.00
9289;BME280;4683;50.864;12.086;2024-03-22T04:53:34;99502.91;;;8.84;100.00
9289;BME280;4683;50.864;12.086;2024-03-22T04:56:02;99497.00;;;8.82;100.00
9289;BME280;4683;50.864;12.086;2024-03-22T04:58:30;99495.84;;;8.85;100.00
9289;BME280;4683;50.864;12.086;2024-03-22T05:01:00;99491.25;;;8.87;100.00
9289;BME280;4683;50.864;12.086;2024-03-22T05:03:29;99492.72;;;8.89;100.00
9289;BME280;4683;50.864;12.086;2024-03-22T05:05:58;99498.66;;;8.92;100.00
9289;BME280;4683;50.864;12.086;2024-03-22T05:08:27;99497.50;;;8.94;100.00
9289;BME280;4683;50.864;12.086;2024-03-22T05:10:55;99497.69;;;8.93;100.00
9289;BME280;4683;50.864;12.086;2024-03-22T05:13:25;99494.41;;;8.91;100.00
9289;BME280;4683;50.864;12.086;2024-03-22T05:15:52;99484.88;;;8.98;100.00
9289;BME280;4683;50.864;12.086;2024-03-22T05:18:23;99470.75;;;9.07;100.00
9289;BME280;4683;50.864;12.086;2024-03-22T05:20:52;99466.16;;;9.09;100.00
9289;BME280;4683;50.864;12.086;2024-03-22T05:23:21;99459.59;;;9.13;100.00
9289;BME280;4683;50.864;12.086;2024-03-22T05:25:49;99462.56;;;9.18;100.00
9289;BME280;4683;50.864;12.086;2024-03-22T05:28:18;99464.03;;;9.21;100.00
9289;BME280;4683;50.864;12.086;2024-03-22T05:30:47;99453.38;;;9.22;100.00
9289;BME280;4683;50.864;12.086;2024-03-22T05:33:16;99447.41;;;9.20;100.00
9289;BME280;4683;50.864;12.086;2024-03-22T05:35:46;99444.47;;;9.23;100.00
9289;BME280;4683;50.864;12.086;2024-03-22T05:38:19;99443.00;;;9.29;100.00
9289;BME280;4683;50.864;12.086;2024-03-22T05:40:47;99437.56;;;9.30;100.00
9289;BME280;4683;50.864;12.086;2024-03-22T05:43:16;99441.69;;;9.33;100.00
9289;BME280;4683;50.864;12.086;2024-03-22T05:45:44;99442.84;;;9.38;100.00
9289;BME280;4683;50.864;12.086;2024-03-22T05:48:13;99439.88;;;9.42;100.00
9289;BME280;4683;50.864;12.086;2024-03-22T05:50:41;99436.09;;;9.52;100.00
9289;BME280;4683;50.864;12.086;2024-03-22T05:53:12;99428.88;;;9.54;100.00
9289;BME280;4683;50.864;12.086;2024-03-22T05:55:40;99423.94;;;9.59;100.00
9289;BME280;4683;50.864;12.086;2024-03-22T05:58:09;99423.94;;;9.68;100.00
9289;BME280;4683;50.864;12.086;2024-03-22T06:00:38;99418.50;;;9.77;100.00
9289;BME280;4683;50.864;12.086;2024-03-22T06:03:07;99419.31;;;9.86;100.00
9289;BME280;4683;50.864;12.086;2024-03-22T06:05:34;99408.25;;;9.90;100.00
9289;BME280;4683;50.864;12.086;2024-03-22T06:08:03;99409.72;;;9.93;100.00
9289;BME280;4683;50.864;12.086;2024-03-22T06:10:33;99413.16;;;9.94;100.00
9289;BME280;4683;50.864;12.086;2024-03-22T06:13:02;99414.16;;;10.01;100.00
9289;BME280;4683;50.864;12.086;2024-03-22T06:15:30;99419.94;;;10.04;100.00
9289;BME280;4683;50.864;12.086;2024-03-22T06:17:59;99419.72;;;10.14;100.00
9289;BME280;4683;50.864;12.086;2024-03-22T06:20:27;99422.41;;;9.98;100.00
9289;BME280;4683;50.864;12.086;2024-03-22T06:22:59;99412.03;;;9.96;100.00
9289;BME280;4683;50.864;12.086;2024-03-22T06:25:28;99413.84;;;10.04;100.00
9289;BME280;4683;50.864;12.086;2024-03-22T06:27:58;99413.66;;;10.05;100.00
9289;BME280;4683;50.864;12.086;2024-03-22T06:30:27;99406.38;;;10.15;100.00
9289;BME280;4683;50.864;12.086;2024-03-22T06:33:13;99411.34;;;10.10;100.00
9289;BME280;4683;50.864;12.086;2024-03-22T06:35:42;99409.34;;;10.12;100.00
9289;BME280;4683;50.864;12.086;2024-03-22T06:38:10;99412.16;;;10.03;100.00
9289;BME280;4683;50.864;12.086;2024-03-22T06:40:38;99407.38;;;10.14;100.00
9289;BME280;4683;50.864;12.086;2024-03-22T06:43:09;99415.41;;;10.21;100.00
9289;BME280;4683;50.864;12.086;2024-03-22T06:45:42;99415.41;;;10.21;100.00
9289;BME280;4683;50.864;12.086;2024-03-22T06:48:12;99413.91;;;10.35;100.00
9289;BME280;4683;50.864;12.086;2024-03-22T06:50:44;99417.94;;;10.62;100.00
9289;BME280;4683;50.864;12.086;2024-03-22T06:53:23;99418.28;;;10.59;100.00
9289;BME280;4683;50.864;12.086;2024-03-22T06:55:53;99417.59;;;10.65;100.00
9289;BME280;4683;50.864;12.086;2024-03-22T06:58:25;99416.81;;;10.87;100.00
9289;BME280;4683;50.864;12.086;2024-03-22T07:00:52;99417.19;;;11.07;100.00
9289;BME280;4683;50.864;12.086;2024-03-22T07:03:23;99410.09;;;11.31;100.00
9289;BME280;4683;50.864;12.086;2024-03-22T07:05:52;99413.16;;;11.42;100.00
9289;BME280;4683;50.864;12.086;2024-03-22T07:08:22;99406.41;;;11.40;100.00
9289;BME280;4683;50.864;12.086;2024-03-22T07:10:51;99413.81;;;11.45;100.00
9289;BME280;4683;50.864;12.086;2024-03-22T07:13:21;99402.63;;;11.57;100.00
9289;BME280;4683;50.864;12.086;2024-03-22T07:15:52;99414.13;;;11.64;100.00
9289;BME280;4683;50.864;12.086;2024-03-22T07:18:21;99413.31;;;11.64;100.00
9289;BME280;4683;50.864;12.086;2024-03-22T07:20:50;99404.66;;;11.70;100.00
9289;BME280;4683;50.864;12.086;2024-03-22T07:23:20;99404.91;;;11.83;100.00
9289;BME280;4683;50.864;12.086;2024-03-22T07:25:48;99404.00;;;11.91;100.00
9289;BME280;4683;50.864;12.086;2024-03-22T07:28:18;99404.81;;;11.91;100.00
9289;BME280;4683;50.864;12.086;2024-03-22T07:30:45;99401.00;;;12.09;100.00
9289;BME280;4683;50.864;12.086;2024-03-22T07:33:16;99385.56;;;12.12;100.00
9289;BME280;4683;50.864;12.086;2024-03-22T07:35:46;99380.94;;;12.00;100.00
9289;BME280;4683;50.864;12.086;2024-03-22T07:38:17;99381.22;;;11.90;100.00
9289;BME280;4683;50.864;12.086;2024-03-22T07:40:47;99384.69;;;11.90;100.00
9289;BME280;4683;50.864;12.086;2024-03-22T07:43:15;99380.38;;;11.89;100.00
9289;BME280;4683;50.864;12.086;2024-03-22T07:45:44;99379.69;;;11.73;100.00
9289;BME280;4683;50.864;12.086;2024-03-22T07:48:12;99371.88;;;11.79;100.00
9289;BME280;4683;50.864;12.086;2024-03-22T07:50:44;99377.88;;;11.73;100.00
9289;BME280;4683;50.864;12.086;2024-03-22T07:53:13;99370.81;;;11.88;100.00
9289;BME280;4683;50.864;12.086;2024-03-22T07:55:41;99373.38;;;11.97;100.00
9289;BME280;4683;50.864;12.086;2024-03-22T07:58:10;99375.28;;;11.88;100.00
9289;BME280;4683;50.864;12.086;2024-03-22T08:00:39;99372.81;;;11.86;100.00
9289;BME280;4683;50.864;12.086;2024-03-22T08:03:09;99376.75;;;11.90;100.00
9289;BME280;4683;50.864;12.086;2024-03-22T08:05:44;99375.00;;;11.98;100.00
9289;BME280;4683;50.864;12.086;2024-03-22T08:08:14;99374.00;;;11.99;100.00
9289;BME280;4683;50.864;12.086;2024-03-22T08:10:43;99365.91;;;12.00;100.00
9289;BME280;4683;50.864;12.086;2024-03-22T08:13:15;99368.00;;;12.05;100.00
9289;BME280;4683;50.864;12.086;2024-03-22T08:15:44;99369.63;;;12.06;100.00
9289;BME280;4683;50.864;12.086;2024-03-22T08:18:19;99364.41;;;12.12;100.00
9289;BME280;4683;50.864;12.086;2024-03-22T08:20:48;99366.34;;;12.18;100.00
9289;BME280;4683;50.864;12.086;2024-03-22T08:23:17;99366.16;;;12.20;100.00
9289;BME280;4683;50.864;12.086;2024-03-22T08:25:47;99367.97;;;12.34;100.00
9289;BME280;4683;50.864;12.086;2024-03-22T08:28:15;99366.56;;;12.53;100.00
9289;BME280;4683;50.864;12.086;2024-03-22T08:30:43;99373.22;;;12.64;100.00
9289;BME280;4683;50.864;12.086;2024-03-22T08:33:11;99368.50;;;12.81;100.00
9289;BME280;4683;50.864;12.086;2024-03-22T08:35:39;99371.13;;;12.95;100.00
9289;BME280;4683;50.864;12.086;2024-03-22T08:38:09;99369.59;;;13.23;100.00
9289;BME280;4683;50.864;12.086;2024-03-22T08:40:37;99364.66;;;13.41;100.00
9289;BME280;4683;50.864;12.086;2024-03-22T08:43:06;99354.19;;;13.61;100.00
9289;BME280;4683;50.864;12.086;2024-03-22T08:45:34;99355.53;;;13.78;100.00
9289;BME280;4683;50.864;12.086;2024-03-22T08:48:04;99352.19;;;13.63;100.00
9289;BME280;4683;50.864;12.086;2024-03-22T08:50:32;99355.31;;;13.73;100.00
9289;BME280;4683;50.864;12.086;2024-03-22T08:53:01;99349.44;;;13.84;100.00
9289;BME280;4683;50.864;12.086;2024-03-22T08:55:31;99342.44;;;14.05;100.00
9289;BME280;4683;50.864;12.086;2024-03-22T08:58:00;99342.28;;;14.13;100.00
9289;BME280;4683;50.864;12.086;2024-03-22T09:00:27;99334.56;;;14.25;100.00
9289;BME280;4683;50.864;12.086;2024-03-22T09:02:57;99337.94;;;14.40;100.00
9289;BME280;4683;50.864;12.086;2024-03-22T09:05:25;99329.84;;;14.55;100.00
9289;BME280;4683;50.864;12.086;2024-03-22T09:07:55;99341.22;;;14.49;100.00
9289;BME280;4683;50.864;12.086;2024-03-22T09:10:24;99327.44;;;14.73;100.00
9289;BME280;4683;50.864;12.086;2024-03-22T09:12:54;99317.22;;;14.83;100.00
9289;BME280;4683;50.864;12.086;2024-03-22T09:15:22;99320.50;;;14.98;100.00
9289;BME280;4683;50.864;12.086;2024-03-22T09:17:52;99308.88;;;14.86;100.00
9289;BME280;4683;50.864;12.086;2024-03-22T09:20:20;99310.25;;;14.69;100.00
9289;BME280;4683;50.864;12.086;2024-03-22T09:22:50;99306.19;;;14.73;100.00
9289;BME280;4683;50.864;12.086;2024-03-22T09:25:20;99298.78;;;14.62;100.00
9289;BME280;4683;50.864;12.086;2024-03-22T09:27:51;99294.97;;;14.78;100.00
9289;BME280;4683;50.864;12.086;2024-03-22T09:30:22;99299.25;;;14.98;100.00
9289;BME280;4683;50.864;12.086;2024-03-22T09:32:51;99296.41;;;15.07;100.00
9289;BME280;4683;50.864;12.086;2024-03-22T09:35:19;99294.75;;;14.92;100.00
9289;BME280;4683;50.864;12.086;2024-03-22T09:37:49;99285.78;;;15.07;100.00
9289;BME280;4683;50.864;12.086;2024-03-22T09:40:17;99285.38;;;15.10;100.00
9289;BME280;4683;50.864;12.086;2024-03-22T09:42:49;99294.19;;;15.04;100.00
9289;BME280;4683;50.864;12.086;2024-03-22T09:45:18;99275.38;;;15.18;100.00
9289;BME280;4683;50.864;12.086;2024-03-22T09:47:51;99274.94;;;15.15;100.00
9289;BME280;4683;50.864;12.086;2024-03-22T09:50:22;99273.13;;;15.22;100.00
9289;BME280;4683;50.864;12.086;2024-03-22T09:52:53;99274.53;;;15.25;100.00
9289;BME280;4683;50.864;12.086;2024-03-22T09:55:23;99273.06;;;15.48;100.00
9289;BME280;4683;50.864;12.086;2024-03-22T09:57:52;99263.66;;;15.66;100.00
9289;BME280;4683;50.864;12.086;2024-03-22T10:00:21;99257.72;;;15.70;100.00
9289;BME280;4683;50.864;12.086;2024-03-22T10:02:54;99251.78;;;15.75;100.00
9289;BME280;4683;50.864;12.086;2024-03-22T10:05:22;99250.50;;;15.84;100.00
9289;BME280;4683;50.864;12.086;2024-03-22T10:07:52;99250.06;;;15.94;100.00
9289;BME280;4683;50.864;12.086;2024-03-22T10:10:20;99258.75;;;15.76;100.00
9289;BME280;4683;50.864;12.086;2024-03-22T10:12:49;99247.09;;;15.77;100.00
9289;BME280;4683;50.864;12.086;2024-03-22T10:15:20;99246.50;;;15.68;100.00
9289;BME280;4683;50.864;12.086;2024-03-22T10:17:49;99247.84;;;15.84;100.00
9289;BME280;4683;50.864;12.086;2024-03-22T10:20:19;99239.88;;;15.91;100.00
9289;BME280;4683;50.864;12.086;2024-03-22T10:22:53;99239.81;;;16.04;100.00
9289;BME280;4683;50.864;12.086;2024-03-22T10:25:23;99237.34;;;16.03;100.00
9289;BME280;4683;50.864;12.086;2024-03-22T10:27:54;99241.41;;;16.12;100.00
9289;BME280;4683;50.864;12.086;2024-03-22T10:30:23;99237.66;;;16.26;100.00
9289;BME280;4683;50.864;12.086;2024-03-22T10:32:54;99231.63;;;16.06;100.00
9289;BME280;4683;50.864;12.086;2024-03-22T10:35:25;99226.69;;;16.03;100.00
9289;BME280;4683;50.864;12.086;2024-03-22T10:37:54;99215.22;;;16.09;100.00
9289;BME280;4683;50.864;12.086;2024-03-22T10:40:22;99208.25;;;16.08;100.00
9289;BME280;4683;50.864;12.086;2024-03-22T10:42:53;99206.31;;;15.83;100.00
9289;BME280;4683;50.864;12.086;2024-03-22T10:45:20;99208.53;;;16.00;100.00
9289;BME280;4683;50.864;12.086;2024-03-22T10:47:55;99202.16;;;16.01;100.00
9289;BME280;4683;50.864;12.086;2024-03-22T10:50:26;99195.06;;;15.88;100.00
9289;BME280;4683;50.864;12.086;2024-03-22T10:53:01;99187.81;;;16.02;100.00
9289;BME280;4683;50.864;12.086;2024-03-22T10:55:37;99187.16;;;16.13;100.00
9289;BME280;4683;50.864;12.086;2024-03-22T10:58:15;99178.88;;;16.28;100.00
9289;BME280;4683;50.864;12.086;2024-03-22T11:00:44;99174.78;;;16.25;100.00
9289;BME280;4683;50.864;12.086;2024-03-22T11:03:13;99164.56;;;16.54;100.00
9289;BME280;4683;50.864;12.086;2024-03-22T11:05:54;99173.97;;;16.56;100.00
9289;BME280;4683;50.864;12.086;2024-03-22T11:08:25;99160.56;;;16.06;100.00
9289;BME280;4683;50.864;12.086;2024-03-22T11:10:55;99170.09;;;16.27;100.00
9289;BME280;4683;50.864;12.086;2024-03-22T11:13:25;99159.63;;;16.26;100.00
9289;BME280;4683;50.864;12.086;2024-03-22T11:15:53;99155.31;;;16.31;100.00
9289;BME280;4683;50.864;12.086;2024-03-22T11:18:22;99149.91;;;16.44;100.00
9289;BME280;4683;50.864;12.086;2024-03-22T11:20:52;99143.72;;;16.76;100.00
9289;BME280;4683;50.864;12.086;2024-03-22T11:23:21;99142.03;;;16.81;100.00
9289;BME280;4683;50.864;12.086;2024-03-22T11:25:51;99137.28;;;16.83;100.00
9289;BME280;4683;50.864;12.086;2024-03-22T11:28:20;99131.97;;;16.83;100.00
9289;BME280;4683;50.864;12.086;2024-03-22T11:30:48;99138.59;;;16.74;100.00
9289;BME280;4683;50.864;12.086;2024-03-22T11:33:17;99127.06;;;16.80;100.00
9289;BME280;4683;50.864;12.086;2024-03-22T11:35:45;99135.75;;;16.69;100.00
9289;BME280;4683;50.864;12.086;2024-03-22T11:38:17;99123.09;;;16.64;100.00
9289;BME280;4683;50.864;12.086;2024-03-22T11:40:46;99122.78;;;16.54;100.00
9289;BME280;4683;50.864;12.086;2024-03-22T11:43:15;99117.91;;;16.69;100.00
9289;BME280;4683;50.864;12.086;2024-03-22T11:45:43;99113.03;;;16.91;100.00
9289;BME280;4683;50.864;12.086;2024-03-22T11:48:13;99106.50;;;16.87;100.00
9289;BME280;4683;50.864;12.086;2024-03-22T11:50:42;99103.94;;;16.99;100.00
9289;BME280;4683;50.864;12.086;2024-03-22T11:53:11;99103.09;;;16.98;100.00
9289;BME280;4683;50.864;12.086;2024-03-22T11:55:41;99094.66;;;16.83;100.00
9289;BME280;4683;50.864;12.086;2024-03-22T11:58:10;99086.38;;;16.91;100.00
9289;BME280;4683;50.864;12.086;2024-03-22T12:00:39;99088.69;;;17.06;100.00
9289;BME280;4683;50.864;12.086;2024-03-22T12:03:09;99076.84;;;17.02;100.00
9289;BME280;4683;50.864;12.086;2024-03-22T12:05:37;99079.44;;;16.90;100.00
9289;BME280;4683;50.864;12.086;2024-03-22T12:08:06;99074.66;;;16.74;100.00
9289;BME280;4683;50.864;12.086;2024-03-22T12:10:34;99074.25;;;16.70;100.00
9289;BME280;4683;50.864;12.086;2024-03-22T12:13:05;99078.28;;;16.80;100.00
9289;BME280;4683;50.864;12.086;2024-03-22T12:15:32;99069.59;;;16.91;100.00
9289;BME280;4683;50.864;12.086;2024-03-22T12:18:03;99075.16;;;16.64;100.00
9289;BME280;4683;50.864;12.086;2024-03-22T12:20:33;99075.19;;;16.58;100.00
9289;BME280;4683;50.864;12.086;2024-03-22T12:23:02;99067.44;;;16.56;100.00
9289;BME280;4683;50.864;12.086;2024-03-22T12:25:31;99064.38;;;16.53;100.00
9289;BME280;4683;50.864;12.086;2024-03-22T12:28:00;99055.97;;;16.56;100.00
9289;BME280;4683;50.864;12.086;2024-03-22T12:30:29;99057.59;;;16.57;100.00
9289;BME280;4683;50.864;12.086;2024-03-22T12:32:58;99059.38;;;16.44;100.00
9289;BME280;4683;50.864;12.086;2024-03-22T12:35:26;99046.03;;;16.44;100.00
9289;BME280;4683;50.864;12.086;2024-03-22T12:37:55;99044.53;;;16.48;100.00
9289;BME280;4683;50.864;12.086;2024-03-22T12:40:22;99030.56;;;16.53;100.00
9289;BME280;4683;50.864;12.086;2024-03-22T12:42:50;99035.56;;;16.49;100.00
9289;BME280;4683;50.864;12.086;2024-03-22T12:45:18;99028.66;;;16.42;100.00
9289;BME280;4683;50.864;12.086;2024-03-22T12:47:49;99024.56;;;16.39;100.00
9289;BME280;4683;50.864;12.086;2024-03-22T12:50:18;99013.47;;;16.42;100.00
9289;BME280;4683;50.864;12.086;2024-03-22T12:52:47;99014.25;;;16.49;100.00
9289;BME280;4683;50.864;12.086;2024-03-22T12:55:15;99010.44;;;16.39;100.00
9289;BME280;4683;50.864;12.086;2024-03-22T12:57:43;99002.09;;;16.35;100.00
9289;BME280;4683;50.864;12.086;2024-03-22T13:00:12;98994.56;;;16.51;100.00
9289;BME280;4683;50.864;12.086;2024-03-22T13:02:45;98992.19;;;16.42;100.00
9289;BME280;4683;50.864;12.086;2024-03-22T13:05:15;98994.44;;;16.64;100.00
9289;BME280;4683;50.864;12.086;2024-03-22T13:07:44;98993.31;;;16.71;100.00
9289;BME280;4683;50.864;12.086;2024-03-22T13:10:12;98990.59;;;16.78;100.00
9289;BME280;4683;50.864;12.086;2024-03-22T13:12:42;98985.13;;;16.73;100.00
9289;BME280;4683;50.864;12.086;2024-03-22T13:15:10;98970.91;;;16.79;100.00